Murphy, Iowa
Current Conditions -  °F | °C
As of 7:54 AM on Monday 26 Jan 2015 (Local Time) from KALO Reporting Station
Overcast Overcast  
Wind Chill: 20°   Ceiling: 1400
Heat Index: 28°   Visibility: 10mi
Dew Point: 26°   Wind: 8mph
Humidity: 92%   Direction: 180°S
Pressure: 29.81"   Gusts: NA
Location:  42.787°N, 92.4284°W
Report Text: KALO 261354Z AUTO 18007KT 10SM OVC014 M02/M03 A2981 RMK AO2 SLP105 T10221033
Loading
Personal Weather Stations






























Interactive Weather Map New forecast layout! Learn more

10-Day Weather Forecast

Advertisements
Track Severe Weather on mobile